createdAt,value
2022-11-22T00:02:19.968Z,31.80
2022-11-22T00:07:23.863Z,42.45
2022-11-22T00:12:28.887Z,41.05
2022-11-22T00:17:33.473Z,33.03
2022-11-22T00:22:42.735Z,34.80
2022-11-22T00:27:49.092Z,34.45
2022-11-22T00:32:52.778Z,35.42
2022-11-22T00:37:56.410Z,35.67
2022-11-22T00:43:01.117Z,33.90
2022-11-22T00:48:04.696Z,32.17
2022-11-22T00:53:08.393Z,33.30
2022-11-22T00:58:13.191Z,29.58
2022-11-22T01:03:16.591Z,33.03
2022-11-22T01:08:20.281Z,26.73
2022-11-22T01:13:25.496Z,33.22
2022-11-22T01:18:29.630Z,41.42
2022-11-22T01:23:33.134Z,42.83
2022-11-22T01:28:38.282Z,41.25
2022-11-22T01:33:41.918Z,45.22
2022-11-22T01:38:45.592Z,39.10
2022-11-22T01:43:50.375Z,34.30
2022-11-22T01:48:57.934Z,33.40
2022-11-22T01:54:06.742Z,30.15
2022-11-22T01:59:18.012Z,27.55
2022-11-22T02:04:25.868Z,28.88
2022-11-22T02:09:30.244Z,30.83
2022-11-22T02:14:35.937Z,29.48
2022-11-22T02:19:43.766Z,28.05
2022-11-22T02:24:51.560Z,26.40
2022-11-22T02:29:56.650Z,31.23
2022-11-22T02:35:00.062Z,35.05
2022-11-22T02:40:08.816Z,35.78
2022-11-22T02:45:13.733Z,32.58
2022-11-22T02:50:17.142Z,33.20
2022-11-22T02:55:20.545Z,38.85
2022-11-22T03:00:25.485Z,27.85
2022-11-22T03:05:28.946Z,29.15
2022-11-22T03:10:32.707Z,28.60
2022-11-22T03:15:37.415Z,35.90
2022-11-22T03:20:40.888Z,31.27
2022-11-22T03:25:44.264Z,39.65
2022-11-22T03:30:49.042Z,37.03
2022-11-22T03:35:55.995Z,37.30
2022-11-22T03:40:59.364Z,33.28
2022-11-22T03:46:04.263Z,43.78
2022-11-22T03:51:08.310Z,37.70
2022-11-22T03:56:11.992Z,41.90
2022-11-22T04:01:17.106Z,43.03
2022-11-22T04:06:20.642Z,37.70
2022-11-22T04:11:24.308Z,36.28
2022-11-22T04:16:29.048Z,40.83
2022-11-22T04:21:35.544Z,35.35
2022-11-22T04:26:39.056Z,40.03
2022-11-22T04:32:13.514Z,42.63
2022-11-22T04:37:16.950Z,41.78
2022-11-22T04:42:46.424Z,42.10
2022-11-22T04:48:02.968Z,41.85
2022-11-22T04:53:06.367Z,35.13
2022-11-22T04:58:09.812Z,38.92
2022-11-22T05:03:14.692Z,39.45
2022-11-22T05:08:18.201Z,35.50
2022-11-22T05:13:24.804Z,39.90
2022-11-22T05:18:29.998Z,36.70
2022-11-22T05:23:51.341Z,44.95
2022-11-22T05:28:55.061Z,37.60
2022-11-22T05:33:59.779Z,40.20
2022-11-22T05:39:04.095Z,40.83
2022-11-22T05:44:07.843Z,38.97
2022-11-22T05:49:12.576Z,39.17
2022-11-22T05:54:15.971Z,38.03
2022-11-22T05:59:19.375Z,35.92
2022-11-22T06:04:24.437Z,34.88
2022-11-22T06:09:28.213Z,39.22
2022-11-22T06:14:31.871Z,29.58
2022-11-22T06:19:37.115Z,32.13
2022-11-22T06:24:40.541Z,37.05
2022-11-22T06:29:44.264Z,38.30
2022-11-22T06:34:49.052Z,30.90
2022-11-22T06:39:52.683Z,27.23
2022-11-22T06:44:56.376Z,25.25
2022-11-22T06:50:01.133Z,29.30
2022-11-22T06:55:08.169Z,29.60
2022-11-22T07:00:13.782Z,36.97
2022-11-22T07:05:25.616Z,35.00
2022-11-22T07:10:29.778Z,36.50
2022-11-22T07:15:33.253Z,36.88
2022-11-22T07:20:38.255Z,35.85
2022-11-22T07:25:45.087Z,37.45
2022-11-22T07:30:48.472Z,37.67
2022-11-22T07:35:53.454Z,41.85
2022-11-22T07:40:56.928Z,45.08
2022-11-22T07:46:00.674Z,52.95
2022-11-22T07:51:09.246Z,45.40
2022-11-22T07:56:12.699Z,53.53
2022-11-22T08:01:18.998Z,42.72
2022-11-22T08:06:23.927Z,52.05
2022-11-22T08:11:27.611Z,47.33
2022-11-22T08:16:31.023Z,46.90
2022-11-22T08:21:37.109Z,43.90
2022-11-22T08:26:40.592Z,40.78
2022-11-22T08:31:44.055Z,43.38
2022-11-22T08:36:48.818Z,39.45
2022-11-22T08:41:52.353Z,38.70
2022-11-22T08:46:55.844Z,36.78
2022-11-22T08:52:00.609Z,41.70
2022-11-22T08:57:04.010Z,44.40
2022-11-22T09:02:07.672Z,43.22
2022-11-22T09:12:35.817Z,41.90
2022-11-22T09:17:39.262Z,50.22
2022-11-22T09:22:44.104Z,50.70
2022-11-22T09:27:47.490Z,50.03
2022-11-22T09:32:50.839Z,55.55
2022-11-22T09:37:55.892Z,55.70
2022-11-22T09:43:13.219Z,56.75
2022-11-22T09:48:44.839Z,53.45
2022-11-22T09:53:55.229Z,54.35
2022-11-22T09:59:04.127Z,56.33
2022-11-22T10:04:11.734Z,54.42
2022-11-22T10:09:29.488Z,56.40
2022-11-22T10:14:45.380Z,58.78
2022-11-22T10:19:54.907Z,56.58
2022-11-22T10:25:00.585Z,61.28
2022-11-22T10:30:07.374Z,58.38
2022-11-22T10:35:24.611Z,61.28
2022-11-22T10:40:38.500Z,54.55
2022-11-22T10:45:44.965Z,59.83
2022-11-22T10:50:58.988Z,63.05
2022-11-22T10:56:09.154Z,50.78
2022-11-22T11:01:21.765Z,52.42
2022-11-22T11:06:56.831Z,39.53
2022-11-22T11:12:03.562Z,55.53
2022-11-22T11:17:07.956Z,58.45
2022-11-22T11:22:36.003Z,53.50
2022-11-22T11:27:46.022Z,57.05
2022-11-22T11:32:53.690Z,57.38
2022-11-22T11:37:57.597Z,59.40
2022-11-22T11:43:20.791Z,59.75
2022-11-22T11:48:29.498Z,56.22
2022-11-22T11:53:33.151Z,54.13
2022-11-22T11:58:38.164Z,61.00
2022-11-22T12:03:41.650Z,59.10
2022-11-22T12:08:45.113Z,56.95
2022-11-22T12:14:19.146Z,55.03
2022-11-22T12:19:26.028Z,56.45
2022-11-22T12:29:59.986Z,61.53
2022-11-22T12:35:08.232Z,67.70
2022-11-22T12:40:17.664Z,67.43
2022-11-22T12:45:28.105Z,64.00
2022-11-22T12:48:23.138Z,59.05
2022-11-22T12:50:38.703Z,63.78
2022-11-22T12:55:47.079Z,60.17
2022-11-22T13:01:06.788Z,60.38
2022-11-22T13:06:11.969Z,63.83
2022-11-22T13:11:20.459Z,61.67
2022-11-22T13:16:25.195Z,64.28
2022-11-22T13:21:35.168Z,67.80
2022-11-22T13:26:45.702Z,65.40
2022-11-22T13:32:05.500Z,66.15
2022-11-22T13:37:12.418Z,69.57
2022-11-22T13:42:20.276Z,69.57
2022-11-22T13:47:39.732Z,79.78
2022-11-22T13:52:54.143Z,85.30
2022-11-22T13:58:18.052Z,67.13
2022-11-22T14:03:40.143Z,75.82
2022-11-22T14:08:44.062Z,72.70
2022-11-22T14:13:57.168Z,72.72
2022-11-22T14:19:10.448Z,82.60
2022-11-22T14:30:11.889Z,92.88
2022-11-22T14:35:29.624Z,87.13
2022-11-22T14:40:38.382Z,85.30
2022-11-22T14:45:46.690Z,83.00
2022-11-22T14:50:55.937Z,77.97
2022-11-22T14:56:05.810Z,77.88
2022-11-22T15:01:25.266Z,80.80
2022-11-22T15:09:23.704Z,78.82
2022-11-22T15:12:27.226Z,75.20
2022-11-22T16:01:19.094Z,79.95
2022-11-22T16:11:33.976Z,84.18
2022-11-22T16:16:37.317Z,86.25
2022-11-22T16:21:40.748Z,90.22
2022-11-22T16:26:54.913Z,96.30
2022-11-22T16:32:02.822Z,92.28
2022-11-22T16:37:25.505Z,100.47
2022-11-22T16:42:30.391Z,95.35
2022-11-22T16:47:33.783Z,113.95
2022-11-22T16:52:37.506Z,126.20
2022-11-22T16:57:42.223Z,130.23
2022-11-22T17:02:45.703Z,97.97
2022-11-22T17:07:49.248Z,86.43
2022-11-22T17:12:54.413Z,81.13
2022-11-22T17:17:57.825Z,87.60
2022-11-22T17:23:01.328Z,78.32
2022-11-22T17:28:06.506Z,79.22
2022-11-22T17:33:12.430Z,86.25
2022-11-22T17:38:15.971Z,78.35
2022-11-22T17:43:20.888Z,82.63
2022-11-22T17:48:24.606Z,81.55
2022-11-22T17:53:28.242Z,82.38
2022-11-22T17:58:33.129Z,84.40
2022-11-22T18:03:36.590Z,91.53
2022-11-22T18:08:46.434Z,87.72
2022-11-22T18:13:51.933Z,91.55
2022-11-22T18:18:57.840Z,96.80
2022-11-22T18:24:02.695Z,95.75
2022-11-22T18:34:32.039Z,87.78
2022-11-22T18:39:37.983Z,85.65
2022-11-22T18:44:43.092Z,82.95
2022-11-22T18:49:47.790Z,80.30
2022-11-22T18:54:51.625Z,93.57
2022-11-22T18:59:56.419Z,91.75
2022-11-22T19:05:00.109Z,88.15
2022-11-22T19:10:04.190Z,84.75
2022-11-22T19:15:10.743Z,76.15
2022-11-22T19:20:39.392Z,83.57
2022-11-22T19:25:37.571Z,82.38
2022-11-22T19:30:44.442Z,79.38
2022-11-22T19:35:56.958Z,87.72
2022-11-22T19:41:00.449Z,84.53
2022-11-22T19:46:05.934Z,77.22
2022-11-22T19:51:10.975Z,77.57
2022-11-22T19:56:15.942Z,76.72
2022-11-22T20:01:22.055Z,79.75
2022-11-22T20:06:26.472Z,82.88
2022-11-22T20:11:30.041Z,89.22
2022-11-22T20:16:34.857Z,89.65
2022-11-22T20:21:39.241Z,99.38
2022-11-22T20:26:42.899Z,110.03
2022-11-22T20:31:48.192Z,105.40
2022-11-22T20:36:51.568Z,98.07
2022-11-22T20:42:18.539Z,97.93
2022-11-22T20:47:19.922Z,94.13
2022-11-22T20:52:23.294Z,92.60
2022-11-22T20:57:27.925Z,92.20
2022-11-22T21:02:34.582Z,90.82
2022-11-22T21:07:38.115Z,91.85
2022-11-22T21:12:41.561Z,90.65
2022-11-22T21:18:17.039Z,87.22
2022-11-22T21:23:09.804Z,85.35
2022-11-22T21:28:13.220Z,94.03
2022-11-22T21:33:17.985Z,86.53
2022-11-22T21:38:24.691Z,90.38
2022-11-22T21:43:33.377Z,121.43
2022-11-22T21:48:38.169Z,106.03
2022-11-22T21:53:41.592Z,108.40
2022-11-22T21:58:45.528Z,98.35
2022-11-22T22:03:50.318Z,96.40
2022-11-22T22:08:53.709Z,104.28
2022-11-22T22:13:58.914Z,102.45
2022-11-22T22:19:09.501Z,98.60
2022-11-22T22:24:13.179Z,105.10
2022-11-22T22:29:16.669Z,106.65
2022-11-22T22:34:21.418Z,112.10
2022-11-22T22:39:25.274Z,115.55
2022-11-22T22:44:28.977Z,116.50
2022-11-22T22:49:34.361Z,113.82
2022-11-22T22:54:38.040Z,119.22
2022-11-22T22:59:41.470Z,103.75
2022-11-22T23:04:46.199Z,112.13
2022-11-22T23:09:49.553Z,107.07
2022-11-22T23:14:53.027Z,110.53
2022-11-22T23:19:57.746Z,109.15
2022-11-22T23:25:01.322Z,101.10
2022-11-22T23:30:05.622Z,104.05
2022-11-22T23:35:11.055Z,102.10
2022-11-22T23:40:15.274Z,113.47
2022-11-22T23:45:18.643Z,114.80
2022-11-22T23:50:23.636Z,107.53
2022-11-22T23:55:27.079Z,107.85
